Aérodrome :
LOGIN :

S'inscrire | Disclaimer

   EN    FR    IT 

 










Légende :    VFR   VFR Marginal   IFR   IFR Intensif   IFR Très Intensif
Visi : 
Plafond : 
>= 8 km
>= 3000ft
5 à 8 km
1000 à 3000 ft
1500m à 5 km
500 à 1000 ft
800 à 1500m
200 à 500 ft
< 800m
< 200 ft
Symboles :   Orages  Brouillard  Fortes neiges  Fortes précipitations  Vent > 20 kt
SIGMETs :   Divers  Orages  Givrage  Turbulence  Onde Orograph.  Cendres Volcan.







- Altitude de l'aérodrome : -15 ft
- Code IATA : RTM


EHRD - Rotterdam Zestienhoven

DERNIER METAR :
  • 142055Z AUTO 15006KT 9999 NSC 06/05 Q1024 NOSIG

METARs EXPIRÉS :
  • 142025Z AUTO 15005KT 9999 NSC 08/06 Q1024 NOSIG
  • 141955Z AUTO 15006KT 120V180 9999 NSC 09/07 Q1024 NOSIG
  • 141925Z AUTO 16008KT 9999 NSC 09/07 Q1025 NOSIG
  • 141855Z AUTO 16008KT 9999 NSC 09/07 Q1025 NOSIG
  • 141825Z AUTO 16009KT 9999 NSC 10/07 Q1025 NOSIG

TAF TAF EHRD
Valide du 14 à 18h jusqu'au 16 à 00h UTC


141710Z 1418/1524 15007KT CAVOK
BECMG 1421/1424 6000 FEW010
PROB40 1503/1511 2500 BR BKN006
BECMG 1510/1513 9000 BKN012
BECMG 1517/1520 7000
BECMG 1520/1523 2500 BR SCT003
Pas de NOTAMs connus pour ce terrain.



MET'MAP, la Météo Aéronautique d'un coup d'oeil ! - Copyright ORBIFLY Décembre 2007 - Disclaimer

ORBIFLY MET'MAP TEAM :

Programmation & Développement : Alexandra Zaïnal
Conception & Développement : Baudouin d'Aumeries
Co-Programmation & Développement : Marc-Olivier Méhu
Soutien technique & logistique : Manuel Goepfert

Contact : metmap@orbifly.com




SOURCES & CREDITS :

   NOAA